Terminal Aerodrome Forecast
Issued by NWS

Home | Current Version | Previous Version | Text Only | Print | Product List | Glossary On
Versions: 1 2 3 4 5 6 7 8 9 10 11 12 13 14 15
590
FTPA31 PHFO 300242 AAB
TAFHTO
TAF AMD
PHTO 300242Z 3003/3024 04014KT P6SM FEW050 BKN080
      TEMPO 3002/3006 34014G20KT -SHRA FEW030 BKN050
     FM300800 22006KT P6SM FEW030 BKN050 BKN080
     FM302000 16014G20KT P6SM VCSH SCT030 OVC050=

USA.gov is the U.S. government's official web portal to all federal, state and local government web resources and services.